SWA611 KDEN-KLAS
Flight info
| Callsign | SWA611 |
|---|---|
| Flight time | 1h 22m |
| Altitude | 36000 |
| Route | CONNR8 WERNR ZAKRY CHESZ GGAPP CHOWW4 |
| Aircraft | B737/M-SDE2E3FGHIRWXY/LB1 |
Departure
| Time | 2026-05-06 23:46 |
|---|---|
| Airport | Denver International Airport (KDEN) |
Arrival
| Time | 2026-05-07 01:09 |
|---|---|
| Airport | Harry Reid International Airport (KLAS) |
| Time | Latitude | Longitude | Altitude | Speed | Heading |
|---|---|---|---|---|---|
| 2026-05-06 23:14 | 39.86358 | -104.67811 | 5365 ft | 0 kts | 180° |
| 2026-05-06 23:36 | 39.86379 | -104.67811 | 5362 ft | 4 kts | 180° |
| 2026-05-06 23:36 | 39.86400 | -104.67810 | 5361 ft | 4 kts | 180° |
| 2026-05-06 23:37 | 39.86410 | -104.67810 | 5363 ft | 0 kts | 180° |
| 2026-05-06 23:39 | 39.86409 | -104.67811 | 5365 ft | 1 kts | 195° |
| 2026-05-06 23:39 | 39.86411 | -104.67820 | 5361 ft | 1 kts | 291° |
| 2026-05-06 23:39 | 39.86442 | -104.67891 | 5362 ft | 16 kts | 299° |
| 2026-05-06 23:40 | 39.86482 | -104.68053 | 5365 ft | 19 kts | 270° |
| 2026-05-06 23:40 | 39.86439 | -104.68199 | 5362 ft | 17 kts | 236° |
| 2026-05-06 23:40 | 39.86422 | -104.68350 | 5364 ft | 17 kts | 246° |
| 2026-05-06 23:40 | 39.86319 | -104.68390 | 5364 ft | 16 kts | 181° |
| 2026-05-06 23:41 | 39.86208 | -104.68391 | 5363 ft | 16 kts | 180° |
| 2026-05-06 23:41 | 39.86102 | -104.68392 | 5364 ft | 15 kts | 180° |
| 2026-05-06 23:41 | 39.85998 | -104.68393 | 5364 ft | 16 kts | 180° |
| 2026-05-06 23:41 | 39.85879 | -104.68394 | 5364 ft | 18 kts | 180° |
| 2026-05-06 23:42 | 39.85745 | -104.68395 | 5365 ft | 20 kts | 180° |
| 2026-05-06 23:42 | 39.85603 | -104.68397 | 5365 ft | 20 kts | 180° |
| 2026-05-06 23:42 | 39.85479 | -104.68398 | 5364 ft | 15 kts | 180° |
| 2026-05-06 23:42 | 39.85377 | -104.68400 | 5365 ft | 14 kts | 181° |
| 2026-05-06 23:43 | 39.85286 | -104.68402 | 5364 ft | 9 kts | 181° |
| 2026-05-06 23:43 | 39.85225 | -104.68421 | 5363 ft | 9 kts | 218° |
| 2026-05-06 23:43 | 39.85204 | -104.68495 | 5365 ft | 9 kts | 267° |
| 2026-05-06 23:43 | 39.85203 | -104.68589 | 5365 ft | 12 kts | 269° |
| 2026-05-06 23:44 | 39.85203 | -104.68693 | 5364 ft | 11 kts | 269° |
| 2026-05-06 23:44 | 39.85202 | -104.68809 | 5365 ft | 15 kts | 269° |
| 2026-05-06 23:44 | 39.85198 | -104.68948 | 5365 ft | 19 kts | 268° |
| 2026-05-06 23:44 | 39.85195 | -104.69114 | 5365 ft | 18 kts | 269° |
| 2026-05-06 23:45 | 39.85198 | -104.69276 | 5365 ft | 18 kts | 272° |
| 2026-05-06 23:45 | 39.85202 | -104.69433 | 5363 ft | 17 kts | 271° |
| 2026-05-06 23:45 | 39.85203 | -104.69583 | 5364 ft | 16 kts | 273° |
| 2026-05-06 23:45 | 39.85287 | -104.69655 | 5365 ft | 21 kts | 360° |
| 2026-05-06 23:46 | 39.85668 | -104.69652 | 5366 ft | 89 kts | 0° |
| 2026-05-06 23:46 | 39.86510 | -104.69645 | 5363 ft | 150 kts | 1° |
| 2026-05-06 23:46 | 39.87679 | -104.69645 | 5610 ft | 177 kts | 360° |
| 2026-05-06 23:46 | 39.88926 | -104.69640 | 6421 ft | 182 kts | 360° |
| 2026-05-06 23:47 | 39.90238 | -104.69606 | 7034 ft | 192 kts | 351° |
| 2026-05-06 23:47 | 39.91453 | -104.70288 | 7665 ft | 195 kts | 309° |
| 2026-05-06 23:47 | 39.91968 | -104.71924 | 8159 ft | 207 kts | 268° |
| 2026-05-06 23:47 | 39.91488 | -104.73737 | 8767 ft | 217 kts | 240° |
| 2026-05-06 23:48 | 39.90674 | -104.75321 | 9896 ft | 203 kts | 238° |
| 2026-05-06 23:48 | 39.89885 | -104.76886 | 10484 ft | 214 kts | 243° |
| 2026-05-06 23:48 | 39.89136 | -104.78595 | 11084 ft | 221 kts | 245° |
| 2026-05-06 23:48 | 39.88358 | -104.80445 | 11459 ft | 244 kts | 245° |
| 2026-05-06 23:49 | 39.87494 | -104.82490 | 11693 ft | 272 kts | 245° |
| 2026-05-06 23:49 | 39.86566 | -104.84738 | 11901 ft | 298 kts | 245° |
| 2026-05-06 23:49 | 39.85578 | -104.87229 | 12128 ft | 323 kts | 246° |
| 2026-05-06 23:49 | 39.84540 | -104.89905 | 12714 ft | 334 kts | 247° |
| 2026-05-06 23:50 | 39.83723 | -104.92726 | 13558 ft | 334 kts | 257° |
| 2026-05-06 23:50 | 39.82623 | -104.98629 | 15128 ft | 342 kts | 260° |
| 2026-05-06 23:50 | 39.82050 | -105.01667 | 15829 ft | 349 kts | 259° |
| 2026-05-06 23:51 | 39.81445 | -105.04759 | 16547 ft | 356 kts | 259° |
| 2026-05-06 23:51 | 39.80816 | -105.07906 | 17248 ft | 363 kts | 259° |
| 2026-05-06 23:51 | 39.80172 | -105.11101 | 17950 ft | 369 kts | 260° |
| 2026-05-06 23:51 | 39.79513 | -105.14364 | 18611 ft | 376 kts | 260° |
| 2026-05-06 23:52 | 39.78840 | -105.17691 | 19183 ft | 383 kts | 260° |
| 2026-05-06 23:52 | 39.78157 | -105.21075 | 19761 ft | 389 kts | 261° |
| 2026-05-06 23:52 | 39.77472 | -105.24456 | 20336 ft | 395 kts | 261° |
| 2026-05-06 23:52 | 39.76756 | -105.27991 | 20903 ft | 402 kts | 261° |
| 2026-05-06 23:53 | 39.76045 | -105.31480 | 21492 ft | 407 kts | 261° |
| 2026-05-06 23:53 | 39.75315 | -105.35055 | 22069 ft | 412 kts | 261° |
| 2026-05-06 23:53 | 39.74571 | -105.38692 | 22621 ft | 418 kts | 261° |
| 2026-05-06 23:53 | 39.73821 | -105.42368 | 23105 ft | 424 kts | 262° |
| 2026-05-06 23:54 | 39.73061 | -105.46072 | 23105 ft | 425 kts | 262° |
| 2026-05-06 23:54 | 39.72300 | -105.49763 | 23697 ft | 422 kts | 262° |
| 2026-05-06 23:54 | 39.71542 | -105.53435 | 24444 ft | 419 kts | 262° |
| 2026-05-06 23:54 | 39.70790 | -105.57092 | 25067 ft | 420 kts | 262° |
| 2026-05-06 23:55 | 39.70042 | -105.60766 | 25603 ft | 424 kts | 262° |
| 2026-05-06 23:55 | 39.69285 | -105.64481 | 26093 ft | 428 kts | 263° |
| 2026-05-06 23:55 | 39.68563 | -105.68228 | 26577 ft | 428 kts | 265° |
| 2026-05-06 23:55 | 39.67986 | -105.72035 | 27114 ft | 429 kts | 268° |
| 2026-05-06 23:56 | 39.67484 | -105.75861 | 27600 ft | 431 kts | 268° |
| 2026-05-06 23:56 | 39.67000 | -105.79716 | 28105 ft | 434 kts | 269° |
| 2026-05-06 23:56 | 39.66509 | -105.83595 | 28588 ft | 437 kts | 269° |
| 2026-05-06 23:56 | 39.66000 | -105.87505 | 29068 ft | 441 kts | 268° |
| 2026-05-06 23:57 | 39.65472 | -105.91446 | 29510 ft | 444 kts | 268° |
| 2026-05-06 23:57 | 39.64932 | -105.95404 | 29984 ft | 446 kts | 268° |
| 2026-05-06 23:57 | 39.64384 | -105.99373 | 30391 ft | 450 kts | 268° |
| 2026-05-06 23:57 | 39.63827 | -106.03391 | 30765 ft | 453 kts | 268° |
| 2026-05-06 23:58 | 39.63266 | -106.07421 | 31118 ft | 455 kts | 268° |
| 2026-05-06 23:58 | 39.62700 | -106.11471 | 31472 ft | 457 kts | 268° |
| 2026-05-06 23:58 | 39.62140 | -106.15478 | 31865 ft | 459 kts | 268° |
| 2026-05-06 23:58 | 39.61561 | -106.19600 | 32312 ft | 458 kts | 267° |
| 2026-05-06 23:59 | 39.60996 | -106.23608 | 32805 ft | 456 kts | 267° |
| 2026-05-06 23:59 | 39.60426 | -106.27641 | 33238 ft | 455 kts | 267° |
| 2026-05-06 23:59 | 39.59856 | -106.31680 | 33614 ft | 455 kts | 267° |
| 2026-05-06 23:59 | 39.59287 | -106.35710 | 33932 ft | 455 kts | 267° |
| 2026-05-07 00:00 | 39.58717 | -106.39736 | 34260 ft | 454 kts | 267° |
| 2026-05-07 00:00 | 39.58145 | -106.43762 | 34610 ft | 452 kts | 267° |
| 2026-05-07 00:00 | 39.57579 | -106.47730 | 35011 ft | 449 kts | 266° |
| 2026-05-07 00:00 | 39.57198 | -106.50391 | 35277 ft | 448 kts | 266° |
| 2026-05-07 00:01 | 39.56446 | -106.55642 | 35766 ft | 446 kts | 266° |
| 2026-05-07 00:01 | 39.55874 | -106.59634 | 36144 ft | 444 kts | 266° |
| 2026-05-07 00:01 | 39.55319 | -106.63490 | 36523 ft | 442 kts | 265° |
| 2026-05-07 00:01 | 39.54718 | -106.67450 | 36865 ft | 443 kts | 261° |
| 2026-05-07 00:02 | 39.53755 | -106.71190 | 37138 ft | 448 kts | 254° |
| 2026-05-07 00:02 | 39.52549 | -106.75000 | 37494 ft | 448 kts | 252° |
| 2026-05-07 00:02 | 39.51340 | -106.78619 | 37829 ft | 446 kts | 252° |
| 2026-05-07 00:02 | 39.50084 | -106.82381 | 38070 ft | 446 kts | 252° |
| 2026-05-07 00:03 | 39.47685 | -106.89783 | 38141 ft | 446 kts | 253° |
| 2026-05-07 00:03 | 39.45334 | -106.97219 | 38121 ft | 445 kts | 253° |
| 2026-05-07 00:04 | 39.42999 | -107.04630 | 38108 ft | 444 kts | 253° |
| 2026-05-07 00:04 | 39.40660 | -107.12024 | 38080 ft | 444 kts | 253° |
| 2026-05-07 00:05 | 39.38314 | -107.19408 | 38056 ft | 444 kts | 253° |
| 2026-05-07 00:05 | 39.35773 | -107.26703 | 38042 ft | 446 kts | 250° |
| 2026-05-07 00:06 | 39.33513 | -107.32699 | 38034 ft | 447 kts | 249° |
| 2026-05-07 00:06 | 39.30784 | -107.39910 | 38052 ft | 447 kts | 249° |
| 2026-05-07 00:07 | 39.28064 | -107.47158 | 38056 ft | 448 kts | 250° |
| 2026-05-07 00:07 | 39.25357 | -107.54398 | 38070 ft | 448 kts | 250° |
| 2026-05-07 00:08 | 39.22665 | -107.61598 | 38082 ft | 449 kts | 250° |
| 2026-05-07 00:08 | 39.19939 | -107.68871 | 38082 ft | 451 kts | 250° |
| 2026-05-07 00:09 | 39.17201 | -107.76155 | 38080 ft | 452 kts | 249° |
| 2026-05-07 00:09 | 39.14451 | -107.83451 | 38066 ft | 453 kts | 249° |
| 2026-05-07 00:10 | 39.11691 | -107.90757 | 38072 ft | 454 kts | 249° |
| 2026-05-07 00:10 | 39.08921 | -107.98071 | 38083 ft | 454 kts | 249° |
| 2026-05-07 00:11 | 39.06146 | -108.05379 | 38089 ft | 454 kts | 249° |
| 2026-05-07 00:11 | 39.03383 | -108.12640 | 38095 ft | 455 kts | 249° |
| 2026-05-07 00:12 | 39.00597 | -108.19941 | 38093 ft | 454 kts | 249° |
| 2026-05-07 00:12 | 38.97811 | -108.27226 | 38091 ft | 454 kts | 249° |
| 2026-05-07 00:13 | 38.95024 | -108.34497 | 38096 ft | 453 kts | 249° |
| 2026-05-07 00:13 | 38.92233 | -108.41759 | 38109 ft | 453 kts | 249° |
| 2026-05-07 00:14 | 38.89433 | -108.49032 | 38105 ft | 454 kts | 249° |
| 2026-05-07 00:14 | 38.86632 | -108.56285 | 38111 ft | 453 kts | 249° |
| 2026-05-07 00:15 | 38.83828 | -108.63528 | 38067 ft | 453 kts | 249° |
| 2026-05-07 00:15 | 38.81021 | -108.70763 | 38088 ft | 453 kts | 249° |
| 2026-05-07 00:16 | 38.78211 | -108.77991 | 38096 ft | 453 kts | 249° |
| 2026-05-07 00:16 | 38.75411 | -108.85175 | 38094 ft | 454 kts | 249° |
| 2026-05-07 00:17 | 38.72580 | -108.92425 | 38094 ft | 456 kts | 249° |
| 2026-05-07 00:17 | 38.69734 | -108.99691 | 38094 ft | 457 kts | 249° |
| 2026-05-07 00:18 | 38.66879 | -109.06966 | 38083 ft | 458 kts | 249° |
| 2026-05-07 00:18 | 38.64014 | -109.14249 | 38077 ft | 458 kts | 249° |
| 2026-05-07 00:19 | 38.61148 | -109.21509 | 38097 ft | 457 kts | 249° |
| 2026-05-07 00:19 | 38.58276 | -109.28771 | 38096 ft | 457 kts | 248° |
| 2026-05-07 00:20 | 38.55405 | -109.36016 | 38079 ft | 457 kts | 248° |
| 2026-05-07 00:20 | 38.52531 | -109.43251 | 38093 ft | 456 kts | 248° |
| 2026-05-07 00:21 | 38.49656 | -109.50471 | 38092 ft | 455 kts | 248° |
| 2026-05-07 00:21 | 38.46799 | -109.57631 | 38089 ft | 456 kts | 248° |
| 2026-05-07 00:22 | 38.43919 | -109.64828 | 38068 ft | 455 kts | 248° |
| 2026-05-07 00:22 | 38.41029 | -109.72038 | 38072 ft | 456 kts | 248° |
| 2026-05-07 00:23 | 38.38136 | -109.79239 | 38063 ft | 457 kts | 248° |
| 2026-05-07 00:23 | 38.35234 | -109.86445 | 38054 ft | 457 kts | 248° |
| 2026-05-07 00:24 | 38.32321 | -109.93663 | 38042 ft | 459 kts | 248° |
| 2026-05-07 00:24 | 38.29396 | -110.00893 | 38050 ft | 459 kts | 248° |
| 2026-05-07 00:25 | 38.26467 | -110.08121 | 38038 ft | 459 kts | 248° |
| 2026-05-07 00:25 | 38.23559 | -110.15289 | 38031 ft | 459 kts | 248° |
| 2026-05-07 00:26 | 38.20636 | -110.22501 | 38029 ft | 459 kts | 248° |
| 2026-05-07 00:26 | 38.17907 | -110.29782 | 38022 ft | 455 kts | 252° |
| 2026-05-07 00:27 | 38.15487 | -110.37196 | 38028 ft | 452 kts | 253° |
| 2026-05-07 00:27 | 38.13058 | -110.44562 | 38019 ft | 453 kts | 252° |
| 2026-05-07 00:28 | 38.10556 | -110.51925 | 38019 ft | 454 kts | 251° |
| 2026-05-07 00:28 | 38.08022 | -110.59272 | 38018 ft | 455 kts | 251° |
| 2026-05-07 00:29 | 38.05477 | -110.66616 | 38010 ft | 455 kts | 251° |
| 2026-05-07 00:30 | 38.00374 | -110.81299 | 38005 ft | 457 kts | 251° |
| 2026-05-07 00:30 | 37.97802 | -110.88677 | 37991 ft | 458 kts | 251° |
| 2026-05-07 00:31 | 37.95222 | -110.96057 | 38003 ft | 458 kts | 251° |
| 2026-05-07 00:31 | 37.92636 | -111.03438 | 38002 ft | 457 kts | 251° |
| 2026-05-07 00:32 | 37.90051 | -111.10794 | 37982 ft | 457 kts | 251° |
| 2026-05-07 00:32 | 37.87466 | -111.18136 | 37971 ft | 457 kts | 251° |
| 2026-05-07 00:33 | 37.84865 | -111.25503 | 37965 ft | 457 kts | 251° |
| 2026-05-07 00:33 | 37.82268 | -111.32842 | 37969 ft | 457 kts | 251° |
| 2026-05-07 00:34 | 37.79683 | -111.40129 | 37966 ft | 457 kts | 251° |
| 2026-05-07 00:34 | 37.77073 | -111.47470 | 37961 ft | 457 kts | 251° |
| 2026-05-07 00:35 | 37.74459 | -111.54803 | 37961 ft | 458 kts | 251° |
| 2026-05-07 00:35 | 37.71839 | -111.62135 | 37983 ft | 458 kts | 250° |
| 2026-05-07 00:36 | 37.69215 | -111.69459 | 37973 ft | 459 kts | 250° |
| 2026-05-07 00:36 | 37.66577 | -111.76806 | 38013 ft | 459 kts | 250° |
| 2026-05-07 00:37 | 37.63936 | -111.84145 | 38065 ft | 460 kts | 250° |
| 2026-05-07 00:37 | 37.61287 | -111.91486 | 38108 ft | 460 kts | 250° |
| 2026-05-07 00:38 | 37.58646 | -111.98787 | 38136 ft | 460 kts | 250° |
| 2026-05-07 00:38 | 37.55989 | -112.06123 | 38150 ft | 460 kts | 250° |
| 2026-05-07 00:39 | 37.53318 | -112.13450 | 38147 ft | 461 kts | 248° |
| 2026-05-07 00:39 | 37.49986 | -112.20410 | 38124 ft | 465 kts | 240° |
| 2026-05-07 00:40 | 37.46344 | -112.27139 | 38072 ft | 465 kts | 240° |
| 2026-05-07 00:40 | 37.42743 | -112.33898 | 38023 ft | 464 kts | 240° |
| 2026-05-07 00:41 | 37.39202 | -112.40685 | 37977 ft | 464 kts | 241° |
| 2026-05-07 00:41 | 37.35670 | -112.47481 | 37982 ft | 464 kts | 241° |
| 2026-05-07 00:42 | 37.32136 | -112.54262 | 37992 ft | 464 kts | 241° |
| 2026-05-07 00:42 | 37.28590 | -112.61047 | 38004 ft | 465 kts | 240° |
| 2026-05-07 00:43 | 37.25036 | -112.67833 | 37976 ft | 466 kts | 240° |
| 2026-05-07 00:43 | 37.21457 | -112.74653 | 37531 ft | 473 kts | 240° |
| 2026-05-07 00:44 | 37.19650 | -112.78087 | 37032 ft | 471 kts | 240° |
| 2026-05-07 00:44 | 37.18336 | -112.80581 | 36695 ft | 468 kts | 240° |
| 2026-05-07 00:44 | 37.16555 | -112.83956 | 36336 ft | 462 kts | 240° |
| 2026-05-07 00:44 | 37.14762 | -112.87353 | 35908 ft | 458 kts | 240° |
| 2026-05-07 00:45 | 37.13079 | -112.90538 | 35508 ft | 455 kts | 240° |
| 2026-05-07 00:45 | 37.11338 | -112.93831 | 35098 ft | 452 kts | 240° |
| 2026-05-07 00:45 | 37.09609 | -112.97101 | 34680 ft | 449 kts | 240° |
| 2026-05-07 00:45 | 37.07884 | -113.00359 | 34287 ft | 447 kts | 240° |
| 2026-05-07 00:46 | 37.06468 | -113.03034 | 33883 ft | 446 kts | 240° |
| 2026-05-07 00:46 | 37.04757 | -113.06260 | 33410 ft | 444 kts | 240° |
| 2026-05-07 00:46 | 37.03061 | -113.09457 | 32989 ft | 440 kts | 240° |
| 2026-05-07 00:46 | 37.01371 | -113.12637 | 32560 ft | 436 kts | 240° |
| 2026-05-07 00:47 | 36.99696 | -113.15786 | 32143 ft | 433 kts | 240° |
| 2026-05-07 00:47 | 36.98033 | -113.18911 | 31721 ft | 430 kts | 240° |
| 2026-05-07 00:47 | 36.96381 | -113.22013 | 31304 ft | 428 kts | 240° |
| 2026-05-07 00:47 | 36.94732 | -113.25105 | 30893 ft | 425 kts | 240° |
| 2026-05-07 00:48 | 36.93108 | -113.28150 | 30424 ft | 423 kts | 240° |
| 2026-05-07 00:48 | 36.91472 | -113.31213 | 30014 ft | 421 kts | 240° |
| 2026-05-07 00:48 | 36.89866 | -113.34217 | 29563 ft | 418 kts | 239° |
| 2026-05-07 00:48 | 36.88242 | -113.37251 | 29114 ft | 414 kts | 239° |
| 2026-05-07 00:49 | 36.86668 | -113.40190 | 28678 ft | 411 kts | 239° |
| 2026-05-07 00:49 | 36.85064 | -113.43185 | 28260 ft | 407 kts | 239° |
| 2026-05-07 00:49 | 36.83517 | -113.46069 | 27832 ft | 404 kts | 239° |
| 2026-05-07 00:49 | 36.81932 | -113.49021 | 27405 ft | 401 kts | 239° |
| 2026-05-07 00:50 | 36.80389 | -113.51893 | 27021 ft | 397 kts | 239° |
| 2026-05-07 00:50 | 36.78864 | -113.54732 | 26693 ft | 392 kts | 239° |
| 2026-05-07 00:50 | 36.77350 | -113.57553 | 26279 ft | 390 kts | 239° |
| 2026-05-07 00:50 | 36.75850 | -113.60349 | 25876 ft | 387 kts | 239° |
| 2026-05-07 00:51 | 36.74354 | -113.63136 | 25465 ft | 385 kts | 239° |
| 2026-05-07 00:51 | 36.72867 | -113.65902 | 25055 ft | 383 kts | 239° |
| 2026-05-07 00:51 | 36.71385 | -113.68658 | 24623 ft | 382 kts | 239° |
| 2026-05-07 00:51 | 36.69907 | -113.71403 | 24200 ft | 381 kts | 239° |
| 2026-05-07 00:52 | 36.68455 | -113.74099 | 23780 ft | 380 kts | 239° |
| 2026-05-07 00:52 | 36.66963 | -113.76865 | 23315 ft | 379 kts | 238° |
| 2026-05-07 00:52 | 36.65517 | -113.79545 | 22847 ft | 376 kts | 239° |
| 2026-05-07 00:52 | 36.64060 | -113.82242 | 22419 ft | 373 kts | 238° |
| 2026-05-07 00:53 | 36.62617 | -113.84913 | 21990 ft | 371 kts | 238° |
| 2026-05-07 00:53 | 36.61184 | -113.87563 | 21575 ft | 368 kts | 238° |
| 2026-05-07 00:53 | 36.59758 | -113.90195 | 21153 ft | 365 kts | 238° |
| 2026-05-07 00:53 | 36.58327 | -113.92795 | 20744 ft | 363 kts | 236° |
| 2026-05-07 00:54 | 36.56820 | -113.95296 | 20388 ft | 360 kts | 234° |
| 2026-05-07 00:54 | 36.55282 | -113.97747 | 19973 ft | 358 kts | 234° |
| 2026-05-07 00:54 | 36.53751 | -114.00168 | 19581 ft | 356 kts | 234° |
| 2026-05-07 00:54 | 36.52227 | -114.02589 | 19167 ft | 355 kts | 234° |
| 2026-05-07 00:55 | 36.50712 | -114.05008 | 18752 ft | 354 kts | 234° |
| 2026-05-07 00:55 | 36.49715 | -114.06604 | 18473 ft | 353 kts | 234° |
| 2026-05-07 00:55 | 36.48214 | -114.09014 | 18037 ft | 352 kts | 234° |
| 2026-05-07 00:55 | 36.46718 | -114.11418 | 17577 ft | 350 kts | 234° |
| 2026-05-07 00:56 | 36.45232 | -114.13807 | 17149 ft | 348 kts | 234° |
| 2026-05-07 00:56 | 36.43756 | -114.16178 | 16791 ft | 344 kts | 234° |
| 2026-05-07 00:56 | 36.42302 | -114.18513 | 16403 ft | 341 kts | 234° |
| 2026-05-07 00:56 | 36.40848 | -114.20845 | 15935 ft | 341 kts | 234° |
| 2026-05-07 00:57 | 36.39394 | -114.23173 | 15525 ft | 340 kts | 234° |
| 2026-05-07 00:57 | 36.37939 | -114.25473 | 15128 ft | 338 kts | 233° |
| 2026-05-07 00:57 | 36.36482 | -114.27757 | 14726 ft | 336 kts | 233° |
| 2026-05-07 00:57 | 36.35036 | -114.30019 | 14383 ft | 333 kts | 233° |
| 2026-05-07 00:58 | 36.33601 | -114.32264 | 14008 ft | 331 kts | 234° |
| 2026-05-07 00:58 | 36.32175 | -114.34497 | 13625 ft | 329 kts | 233° |
| 2026-05-07 00:58 | 36.30758 | -114.36717 | 13195 ft | 328 kts | 234° |
| 2026-05-07 00:58 | 36.29346 | -114.38928 | 12776 ft | 326 kts | 234° |
| 2026-05-07 00:59 | 36.26543 | -114.43310 | 11966 ft | 322 kts | 233° |
| 2026-05-07 00:59 | 36.25153 | -114.45478 | 11568 ft | 320 kts | 234° |
| 2026-05-07 00:59 | 36.23762 | -114.47620 | 11172 ft | 318 kts | 233° |
| 2026-05-07 01:00 | 36.22372 | -114.49748 | 10791 ft | 316 kts | 233° |
| 2026-05-07 01:00 | 36.21007 | -114.51836 | 10411 ft | 315 kts | 233° |
| 2026-05-07 01:00 | 36.19636 | -114.53934 | 10090 ft | 311 kts | 234° |
| 2026-05-07 01:00 | 36.18300 | -114.55978 | 9860 ft | 303 kts | 234° |
| 2026-05-07 01:01 | 36.16972 | -114.58011 | 9457 ft | 303 kts | 233° |
| 2026-05-07 01:01 | 36.15650 | -114.60034 | 9092 ft | 301 kts | 233° |
| 2026-05-07 01:01 | 36.14350 | -114.62024 | 8909 ft | 293 kts | 233° |
| 2026-05-07 01:01 | 36.13079 | -114.63963 | 8740 ft | 287 kts | 233° |
| 2026-05-07 01:02 | 36.11829 | -114.65872 | 8577 ft | 285 kts | 233° |
| 2026-05-07 01:02 | 36.10591 | -114.67760 | 8434 ft | 278 kts | 233° |
| 2026-05-07 01:02 | 36.09389 | -114.69589 | 8283 ft | 270 kts | 233° |
| 2026-05-07 01:02 | 36.08224 | -114.71363 | 8141 ft | 262 kts | 234° |
| 2026-05-07 01:03 | 36.07419 | -114.73313 | 7933 ft | 252 kts | 261° |
| 2026-05-07 01:03 | 36.07277 | -114.75429 | 7702 ft | 245 kts | 274° |
| 2026-05-07 01:03 | 36.07331 | -114.77489 | 7425 ft | 244 kts | 275° |
| 2026-05-07 01:03 | 36.07373 | -114.79583 | 7152 ft | 244 kts | 273° |
| 2026-05-07 01:04 | 36.07386 | -114.81679 | 6878 ft | 243 kts | 272° |
| 2026-05-07 01:04 | 36.07388 | -114.83749 | 6585 ft | 240 kts | 272° |
| 2026-05-07 01:04 | 36.07410 | -114.85815 | 6175 ft | 240 kts | 272° |
| 2026-05-07 01:04 | 36.07419 | -114.87833 | 5853 ft | 236 kts | 271° |
| 2026-05-07 01:05 | 36.07416 | -114.89841 | 5541 ft | 232 kts | 271° |
| 2026-05-07 01:05 | 36.07409 | -114.91844 | 5237 ft | 230 kts | 271° |
| 2026-05-07 01:05 | 36.07403 | -114.93801 | 4959 ft | 231 kts | 270° |
| 2026-05-07 01:05 | 36.07397 | -114.95773 | 4660 ft | 227 kts | 270° |
| 2026-05-07 01:06 | 36.07392 | -114.97709 | 4394 ft | 222 kts | 270° |
| 2026-05-07 01:06 | 36.07388 | -114.99584 | 4124 ft | 216 kts | 270° |
| 2026-05-07 01:06 | 36.07384 | -115.01402 | 3843 ft | 206 kts | 270° |
| 2026-05-07 01:06 | 36.07380 | -115.03107 | 3595 ft | 190 kts | 270° |
| 2026-05-07 01:07 | 36.07377 | -115.04689 | 3361 ft | 176 kts | 269° |
| 2026-05-07 01:07 | 36.07375 | -115.06115 | 3146 ft | 159 kts | 269° |
| 2026-05-07 01:07 | 36.07373 | -115.07408 | 2946 ft | 145 kts | 269° |
| 2026-05-07 01:07 | 36.07371 | -115.08636 | 2751 ft | 143 kts | 268° |
| 2026-05-07 01:08 | 36.07379 | -115.09874 | 2655 ft | 146 kts | 269° |
| 2026-05-07 01:08 | 36.07370 | -115.11136 | 2482 ft | 147 kts | 268° |
| 2026-05-07 01:08 | 36.07369 | -115.12396 | 2269 ft | 146 kts | 269° |
| 2026-05-07 01:08 | 36.07367 | -115.13601 | 2186 ft | 126 kts | 270° |
| 2026-05-07 01:09 | 36.07367 | -115.14488 | 2190 ft | 67 kts | 270° |
| 2026-05-07 01:09 | 36.07392 | -115.14831 | 2191 ft | 34 kts | 287° |
| 2026-05-07 01:09 | 36.07469 | -115.15045 | 2191 ft | 24 kts | 304° |
| 2026-05-07 01:09 | 36.07590 | -115.15166 | 2191 ft | 22 kts | 334° |
| 2026-05-07 01:10 | 36.07723 | -115.15244 | 2189 ft | 21 kts | 334° |
| 2026-05-07 01:10 | 36.07805 | -115.15162 | 2187 ft | 19 kts | 89° |
| 2026-05-07 01:10 | 36.07797 | -115.14999 | 2188 ft | 19 kts | 95° |
| 2026-05-07 01:10 | 36.07798 | -115.14843 | 2187 ft | 18 kts | 59° |
| 2026-05-07 01:11 | 36.07854 | -115.14732 | 2187 ft | 15 kts | 90° |
| 2026-05-07 01:11 | 36.07845 | -115.14609 | 2187 ft | 14 kts | 95° |
| 2026-05-07 01:11 | 36.07857 | -115.14500 | 2187 ft | 13 kts | 49° |
| 2026-05-07 01:11 | 36.07942 | -115.14482 | 2189 ft | 12 kts | 0° |
| 2026-05-07 01:12 | 36.08000 | -115.14492 | 2187 ft | 8 kts | 317° |
| 2026-05-07 01:12 | 36.08009 | -115.14540 | 2188 ft | 4 kts | 278° |
| 2026-05-07 01:12 | 36.08011 | -115.14560 | 2188 ft | 0 kts | 278° |